createdAt,value
2022-12-28T00:01:18.878Z,66.67
2022-12-28T00:03:49.016Z,67.06
2022-12-28T00:06:17.450Z,66.45
2022-12-28T00:08:45.277Z,66.19
2022-12-28T00:11:26.660Z,65.91
2022-12-28T00:13:59.264Z,67.12
2022-12-28T00:16:29.403Z,66.73
2022-12-28T00:18:59.455Z,66.59
2022-12-28T00:21:27.376Z,67.02
2022-12-28T00:23:58.259Z,66.29
2022-12-28T00:26:27.281Z,66.37
2022-12-28T00:28:59.974Z,66.64
2022-12-28T00:31:32.020Z,66.44
2022-12-28T00:34:01.273Z,66.84
2022-12-28T00:37:11.682Z,66.52
2022-12-28T00:39:16.870Z,67.17
2022-12-28T00:41:44.628Z,66.32
2022-12-28T00:44:12.583Z,66.96
2022-12-28T00:46:40.303Z,66.47
2022-12-28T00:49:09.445Z,66.95
2022-12-28T00:51:37.275Z,67.37
2022-12-28T00:54:05.420Z,66.75
2022-12-28T00:56:33.262Z,66.83
2022-12-28T00:59:01.482Z,67.01
2022-12-28T01:01:30.218Z,66.50
2022-12-28T01:03:59.475Z,66.81
2022-12-28T01:06:29.617Z,66.58
2022-12-28T01:08:57.490Z,66.83
2022-12-28T01:11:27.081Z,67.05
2022-12-28T01:13:57.535Z,66.65
2022-12-28T01:16:27.647Z,66.89
2022-12-28T01:18:57.834Z,67.25
2022-12-28T01:21:29.409Z,67.45
2022-12-28T01:23:59.151Z,67.02
2022-12-28T01:26:27.737Z,66.57
2022-12-28T01:28:55.516Z,66.75
2022-12-28T01:31:23.760Z,67.29
2022-12-28T01:33:51.630Z,66.86
2022-12-28T01:36:21.229Z,67.00
2022-12-28T01:38:53.950Z,66.78
2022-12-28T01:41:22.232Z,67.43
2022-12-28T01:44:28.364Z,67.17
2022-12-28T01:47:01.210Z,66.79
2022-12-28T01:49:31.511Z,67.38
2022-12-28T01:52:03.708Z,67.52
2022-12-28T01:54:37.593Z,66.98
2022-12-28T01:57:05.793Z,66.87
2022-12-28T01:59:38.040Z,67.91
2022-12-28T02:02:06.204Z,67.43
2022-12-28T02:04:34.232Z,67.31
2022-12-28T02:07:02.148Z,67.08
2022-12-28T02:09:36.614Z,67.33
2022-12-28T02:12:04.787Z,67.43
2022-12-28T02:14:33.133Z,67.29
2022-12-28T02:17:01.064Z,67.54
2022-12-28T02:19:38.004Z,67.07
2022-12-28T02:22:25.867Z,67.46
2022-12-28T02:25:15.251Z,67.12
2022-12-28T02:27:55.901Z,67.64
2022-12-28T02:30:25.290Z,67.71
2022-12-28T02:33:01.998Z,67.75
2022-12-28T02:35:35.727Z,67.27
2022-12-28T02:38:12.380Z,67.62
2022-12-28T02:40:44.853Z,68.13
2022-12-28T02:43:13.613Z,68.22
2022-12-28T02:46:02.589Z,67.18
2022-12-28T02:48:57.639Z,68.29
2022-12-28T02:51:45.326Z,68.46
2022-12-28T02:54:54.000Z,67.57
2022-12-28T02:57:36.910Z,68.23
2022-12-28T03:00:09.070Z,68.39
2022-12-28T03:02:54.274Z,68.52
2022-12-28T03:05:51.475Z,68.43
2022-12-28T03:08:23.863Z,68.77
2022-12-28T03:10:58.293Z,68.56
2022-12-28T03:13:44.238Z,68.87
2022-12-28T03:16:18.433Z,68.57
2022-12-28T03:19:09.016Z,69.05
2022-12-28T03:21:56.119Z,68.74
2022-12-28T03:24:42.615Z,68.52
2022-12-28T03:27:33.359Z,68.27
2022-12-28T03:30:23.573Z,68.44
2022-12-28T03:32:52.270Z,68.83
2022-12-28T03:35:24.753Z,68.43
2022-12-28T03:37:57.924Z,68.80
2022-12-28T03:40:32.366Z,69.44
2022-12-28T03:43:22.601Z,69.13
2022-12-28T03:45:57.651Z,69.42
2022-12-28T03:48:26.587Z,69.12
2022-12-28T03:50:56.906Z,69.41
2022-12-28T03:53:30.093Z,69.18
2022-12-28T03:56:07.935Z,69.66
2022-12-28T03:58:35.733Z,69.95
2022-12-28T04:01:03.667Z,69.47
2022-12-28T04:03:31.601Z,69.30
2022-12-28T04:06:01.330Z,69.90
2022-12-28T04:08:29.669Z,69.58
2022-12-28T04:11:00.013Z,69.44
2022-12-28T04:13:30.563Z,69.43
2022-12-28T04:16:00.311Z,70.02
2022-12-28T04:18:28.796Z,69.70
2022-12-28T04:20:56.589Z,70.02
2022-12-28T04:23:26.363Z,69.51
2022-12-28T04:26:01.964Z,69.85
2022-12-28T04:28:30.630Z,69.81
2022-12-28T04:30:59.361Z,70.23
2022-12-28T04:33:28.314Z,70.18
2022-12-28T04:36:04.870Z,70.00
2022-12-28T04:38:34.140Z,70.18
2022-12-28T04:41:02.041Z,69.74
2022-12-28T04:43:30.596Z,70.18
2022-12-28T04:45:59.025Z,70.22
2022-12-28T04:48:27.285Z,70.22
2022-12-28T04:50:55.880Z,70.21
2022-12-28T04:53:24.320Z,69.98
2022-12-28T04:55:53.937Z,69.77
2022-12-28T04:58:21.858Z,70.48
2022-12-28T05:00:49.708Z,70.55
2022-12-28T05:03:17.445Z,70.52
2022-12-28T05:05:45.224Z,70.09
2022-12-28T05:08:13.016Z,70.48
2022-12-28T05:10:40.811Z,70.51
2022-12-28T05:13:09.986Z,70.02
2022-12-28T05:15:39.373Z,70.49
2022-12-28T05:18:07.259Z,70.02
2022-12-28T05:20:35.189Z,70.92
2022-12-28T05:23:02.990Z,70.70
2022-12-28T05:25:30.936Z,70.70
2022-12-28T05:27:58.719Z,70.75
2022-12-28T05:30:27.870Z,70.37
2022-12-28T05:32:55.613Z,71.04
2022-12-28T05:35:23.399Z,71.11
2022-12-28T05:37:51.123Z,71.19
2022-12-28T05:40:18.848Z,70.45
2022-12-28T05:42:51.280Z,70.81
2022-12-28T05:45:20.082Z,70.77
2022-12-28T05:47:49.209Z,71.37
2022-12-28T05:50:17.522Z,70.63
2022-12-28T05:52:45.293Z,71.57
2022-12-28T05:55:13.092Z,71.52
2022-12-28T05:57:40.927Z,71.51
2022-12-28T06:00:09.949Z,70.89
2022-12-28T06:02:37.811Z,71.59
2022-12-28T06:05:08.620Z,71.77
2022-12-28T06:07:36.762Z,71.21
2022-12-28T06:10:04.897Z,71.62
2022-12-28T06:12:32.695Z,71.17
2022-12-28T06:15:00.749Z,71.46
2022-12-28T06:17:28.513Z,71.28
2022-12-28T06:19:56.295Z,71.97
2022-12-28T06:22:25.470Z,71.87
2022-12-28T06:24:53.318Z,71.88
2022-12-28T06:27:21.114Z,71.54
2022-12-28T06:29:49.150Z,71.60
2022-12-28T06:32:16.968Z,71.75
2022-12-28T06:34:44.743Z,71.95
2022-12-28T06:37:12.489Z,71.55
2022-12-28T06:39:41.812Z,71.55
2022-12-28T06:42:09.599Z,71.74
2022-12-28T06:44:44.140Z,71.51
2022-12-28T06:47:12.715Z,71.95
2022-12-28T06:49:40.519Z,71.53
2022-12-28T06:52:08.288Z,72.17
2022-12-28T06:54:36.099Z,71.70
2022-12-28T06:57:05.228Z,72.23
2022-12-28T06:59:33.838Z,72.57
2022-12-28T07:02:01.769Z,72.56
2022-12-28T07:04:29.798Z,72.24
2022-12-28T07:06:57.645Z,71.83
2022-12-28T07:09:25.422Z,72.16
2022-12-28T07:11:53.348Z,71.97
2022-12-28T07:14:22.622Z,71.99
2022-12-28T07:16:50.481Z,72.09
2022-12-28T07:19:18.260Z,72.07
2022-12-28T07:21:46.121Z,72.44
2022-12-28T07:24:13.890Z,72.28
2022-12-28T07:26:41.636Z,72.20
2022-12-28T07:29:11.230Z,72.54
2022-12-28T07:31:45.691Z,72.87
2022-12-28T07:34:14.478Z,72.76
2022-12-28T07:36:42.389Z,72.12
2022-12-28T07:39:10.597Z,72.46
2022-12-28T07:41:38.826Z,72.36
2022-12-28T07:44:06.932Z,72.73
2022-12-28T07:46:36.604Z,72.05
2022-12-28T07:49:06.228Z,72.81
2022-12-28T07:51:35.994Z,72.92
2022-12-28T07:54:04.998Z,72.80
2022-12-28T07:59:02.803Z,72.97
2022-12-28T08:01:32.854Z,73.44
2022-12-28T08:04:02.599Z,72.36
2022-12-28T08:06:35.528Z,72.72
2022-12-28T08:09:03.426Z,72.52
2022-12-28T08:11:33.812Z,71.87
2022-12-28T08:14:02.778Z,71.58
2022-12-28T08:16:32.822Z,72.05
2022-12-28T08:19:00.955Z,71.86
2022-12-28T08:21:31.972Z,72.19
2022-12-28T08:24:00.481Z,72.42
2022-12-28T08:26:30.559Z,72.34
2022-12-28T08:29:00.059Z,72.46
2022-12-28T08:31:30.093Z,72.63
2022-12-28T08:33:59.818Z,72.65
2022-12-28T08:36:28.020Z,72.24
2022-12-28T08:38:58.757Z,72.79
2022-12-28T08:41:28.209Z,71.99
2022-12-28T08:43:56.199Z,72.97
2022-12-28T08:46:26.205Z,72.90
2022-12-28T08:48:55.887Z,72.43
2022-12-28T08:51:25.866Z,72.01
2022-12-28T08:53:54.741Z,71.08
2022-12-28T08:56:25.569Z,71.21
2022-12-28T08:58:53.740Z,69.83
2022-12-28T09:01:24.421Z,69.38
2022-12-28T09:03:54.115Z,69.19
2022-12-28T09:06:24.725Z,68.62
2022-12-28T09:09:05.436Z,67.96
2022-12-28T09:11:36.371Z,67.63
2022-12-28T09:14:05.128Z,67.18
2022-12-28T09:16:33.126Z,66.73
2022-12-28T09:19:03.339Z,66.55
2022-12-28T09:21:33.030Z,66.49
2022-12-28T09:24:00.926Z,66.47
2022-12-28T09:26:31.214Z,66.04
2022-12-28T09:29:01.865Z,66.10
2022-12-28T09:31:31.380Z,65.68
2022-12-28T09:36:50.010Z,67.71
2022-12-28T09:39:19.809Z,66.66
2022-12-28T09:41:52.034Z,66.29
2022-12-28T09:44:39.985Z,66.22
2022-12-28T09:47:20.151Z,65.99
2022-12-28T09:49:59.037Z,66.02
2022-12-28T09:52:31.523Z,65.80
2022-12-28T09:55:08.279Z,66.04
2022-12-28T09:57:38.054Z,65.73
2022-12-28T10:00:09.758Z,65.30
2022-12-28T10:02:39.345Z,65.65
2022-12-28T10:05:08.714Z,66.06
2022-12-28T10:07:38.475Z,66.87
2022-12-28T10:10:07.117Z,66.81
2022-12-28T10:12:35.394Z,67.69
2022-12-28T10:15:03.357Z,68.37
2022-12-28T10:17:32.559Z,68.91
2022-12-28T10:20:00.575Z,69.03
2022-12-28T10:22:40.628Z,69.51
2022-12-28T10:25:18.512Z,69.67
2022-12-28T10:27:46.874Z,70.02
2022-12-28T10:30:17.889Z,70.33
2022-12-28T10:33:02.083Z,70.37
2022-12-28T10:35:35.810Z,70.83
2022-12-28T10:38:07.525Z,70.46
2022-12-28T10:40:39.717Z,70.86
2022-12-28T10:43:11.142Z,71.02
2022-12-28T10:45:43.155Z,70.88
2022-12-28T10:48:18.310Z,71.32
2022-12-28T10:50:51.360Z,71.43
2022-12-28T10:53:24.491Z,72.02
2022-12-28T10:56:02.497Z,72.57
2022-12-28T10:58:33.386Z,72.06
2022-12-28T11:01:05.236Z,72.19
2022-12-28T11:03:37.515Z,72.19
2022-12-28T11:06:13.741Z,72.15
2022-12-28T11:08:43.274Z,71.80
2022-12-28T11:11:19.750Z,71.43
2022-12-28T11:13:51.595Z,70.64
2022-12-28T11:16:19.538Z,70.25
2022-12-28T11:18:49.063Z,69.50
2022-12-28T11:21:21.443Z,69.19
2022-12-28T11:23:50.791Z,69.14
2022-12-28T11:26:20.035Z,69.30
2022-12-28T11:28:51.598Z,69.71
2022-12-28T11:31:27.605Z,69.94
2022-12-28T11:33:59.911Z,70.88
2022-12-28T11:36:29.266Z,70.86
2022-12-28T11:38:57.750Z,71.17
2022-12-28T11:41:56.256Z,71.16
2022-12-28T11:44:54.340Z,71.75
2022-12-28T11:47:32.759Z,71.46
2022-12-28T11:50:39.349Z,71.47
2022-12-28T11:53:22.300Z,71.51
2022-12-28T11:56:03.112Z,72.22
2022-12-28T11:59:15.585Z,72.59
2022-12-28T12:01:45.444Z,71.47
2022-12-28T12:04:46.225Z,72.15
2022-12-28T12:07:31.472Z,71.86
2022-12-28T12:10:28.928Z,72.08
2022-12-28T12:12:56.994Z,72.29
2022-12-28T12:15:32.414Z,73.07
2022-12-28T12:18:03.808Z,72.35
2022-12-28T12:20:57.060Z,72.54
2022-12-28T12:23:35.215Z,72.33
2022-12-28T12:26:20.943Z,72.39
2022-12-28T12:28:51.389Z,72.65
2022-12-28T12:31:29.690Z,72.86
2022-12-28T12:34:02.598Z,72.38
2022-12-28T12:36:47.981Z,72.92
2022-12-28T12:39:29.621Z,72.91
2022-12-28T12:42:11.199Z,73.63
2022-12-28T12:44:44.389Z,72.83
2022-12-28T12:47:46.933Z,72.36
2022-12-28T12:50:25.943Z,73.51
2022-12-28T12:53:03.592Z,73.22
2022-12-28T12:55:47.492Z,72.62
2022-12-28T12:58:24.667Z,72.67
2022-12-28T13:01:11.024Z,72.20
2022-12-28T13:03:45.550Z,71.70
2022-12-28T13:06:16.659Z,72.23
2022-12-28T13:08:49.520Z,73.41
2022-12-28T13:11:19.371Z,71.87
2022-12-28T13:13:51.336Z,72.06
2022-12-28T13:16:21.574Z,72.55
2022-12-28T13:18:57.621Z,74.23
2022-12-28T13:21:26.972Z,72.60
2022-12-28T13:23:55.704Z,72.37
2022-12-28T13:26:28.531Z,72.63
2022-12-28T13:29:00.955Z,72.70
2022-12-28T13:31:34.534Z,72.73
2022-12-28T13:34:04.723Z,74.26
2022-12-28T13:36:32.983Z,71.51
2022-12-28T13:39:04.697Z,72.65
2022-12-28T13:41:34.902Z,72.06
2022-12-28T13:44:29.895Z,71.48
2022-12-28T13:47:03.987Z,72.01
2022-12-28T13:49:36.811Z,72.38
2022-12-28T13:52:10.262Z,72.30
2022-12-28T13:54:39.601Z,72.79
2022-12-28T13:57:44.620Z,72.49
2022-12-28T13:59:59.325Z,72.33
2022-12-28T14:02:29.271Z,72.59
2022-12-28T14:04:57.678Z,73.49
2022-12-28T14:07:29.184Z,74.08
2022-12-28T14:09:58.032Z,74.47
2022-12-28T14:12:26.341Z,72.16
2022-12-28T14:14:54.883Z,71.94
2022-12-28T14:17:24.610Z,71.30
2022-12-28T14:19:53.596Z,71.50
2022-12-28T14:22:33.055Z,68.78
2022-12-28T14:25:07.511Z,69.15
2022-12-28T14:27:38.058Z,68.77
2022-12-28T14:30:08.304Z,67.68
2022-12-28T14:32:42.656Z,66.84
2022-12-28T14:35:28.481Z,66.86
2022-12-28T14:37:58.814Z,66.93
2022-12-28T14:40:31.017Z,66.86
2022-12-28T14:43:00.305Z,67.36
2022-12-28T14:46:05.221Z,68.07
2022-12-28T14:48:40.485Z,68.54
2022-12-28T14:51:27.013Z,69.42
2022-12-28T14:54:18.740Z,69.90
2022-12-28T14:56:51.196Z,69.98
2022-12-28T14:59:23.528Z,70.06
2022-12-28T15:01:51.719Z,69.86
2022-12-28T15:04:30.540Z,70.13
2022-12-28T15:06:58.872Z,70.11
2022-12-28T15:09:26.790Z,70.40
2022-12-28T15:12:09.979Z,70.32
2022-12-28T15:14:38.052Z,70.73
2022-12-28T15:17:06.421Z,70.78
2022-12-28T15:19:35.961Z,70.71
2022-12-28T15:22:03.819Z,70.66
2022-12-28T15:24:34.208Z,70.88
2022-12-28T15:27:02.580Z,70.78
2022-12-28T15:32:18.557Z,70.88
2022-12-28T15:34:47.857Z,71.04
2022-12-28T15:37:15.638Z,70.92
2022-12-28T15:39:43.484Z,70.76
2022-12-28T15:42:11.427Z,70.83
2022-12-28T15:44:39.205Z,70.85
2022-12-28T15:47:07.236Z,71.07
2022-12-28T15:49:35.104Z,70.80
2022-12-28T15:52:04.419Z,70.83
2022-12-28T15:54:32.246Z,71.15
2022-12-28T15:57:00.027Z,71.27
2022-12-28T15:59:28.174Z,71.00
2022-12-28T16:01:56.159Z,71.24
2022-12-28T16:04:24.225Z,71.17
2022-12-28T16:06:51.986Z,70.97
2022-12-28T16:09:21.459Z,71.27
2022-12-28T16:11:54.834Z,71.45
2022-12-28T16:14:23.147Z,71.52
2022-12-28T16:16:51.351Z,71.39
2022-12-28T16:19:19.393Z,71.08
2022-12-28T16:21:49.493Z,71.36
2022-12-28T16:24:17.725Z,71.38
2022-12-28T16:26:47.624Z,71.63
2022-12-28T16:29:15.612Z,71.40
2022-12-28T16:31:43.405Z,71.85
2022-12-28T16:34:13.861Z,71.43
2022-12-28T16:36:42.359Z,71.47
2022-12-28T16:39:13.905Z,71.72
2022-12-28T16:41:41.709Z,71.98
2022-12-28T16:44:24.223Z,71.73
2022-12-28T16:46:54.277Z,71.91
2022-12-28T16:49:22.338Z,71.88
2022-12-28T16:51:50.217Z,71.78
2022-12-28T16:54:19.177Z,71.53
2022-12-28T16:56:47.952Z,71.74
2022-12-28T16:59:19.376Z,71.88
2022-12-28T17:01:47.705Z,71.97
2022-12-28T17:04:15.940Z,71.82
2022-12-28T17:06:46.502Z,71.04
2022-12-28T17:09:15.027Z,70.70
2022-12-28T17:11:43.295Z,70.03
2022-12-28T17:14:12.973Z,69.45
2022-12-28T17:16:42.322Z,68.61
2022-12-28T17:19:10.137Z,68.42
2022-12-28T17:21:38.011Z,68.00
2022-12-28T17:24:06.528Z,67.73
2022-12-28T17:26:34.410Z,67.62
2022-12-28T17:29:02.221Z,68.15
2022-12-28T17:31:30.250Z,68.74
2022-12-28T17:34:00.337Z,69.00
2022-12-28T17:36:28.394Z,69.51
2022-12-28T17:38:56.441Z,69.88
2022-12-28T17:41:27.743Z,70.16
2022-12-28T17:43:57.249Z,70.21
2022-12-28T17:46:26.567Z,70.47
2022-12-28T17:48:55.104Z,70.72
2022-12-28T17:51:26.375Z,71.13
2022-12-28T17:53:56.262Z,70.70
2022-12-28T17:56:24.097Z,70.97
2022-12-28T17:58:57.147Z,70.64
2022-12-28T18:01:26.033Z,71.60
2022-12-28T18:03:54.320Z,71.75
2022-12-28T18:06:22.536Z,73.08
2022-12-28T18:08:51.761Z,70.94
2022-12-28T18:11:20.743Z,70.85
2022-12-28T18:13:49.178Z,70.57
2022-12-28T18:16:19.827Z,70.74
2022-12-28T18:18:47.806Z,70.40
2022-12-28T18:21:21.681Z,71.14
2022-12-28T18:23:53.317Z,71.65
2022-12-28T18:26:23.162Z,71.63
2022-12-28T18:28:51.015Z,71.42
2022-12-28T18:31:20.087Z,71.05
2022-12-28T18:33:48.521Z,70.68
2022-12-28T18:36:17.981Z,69.95
2022-12-28T18:38:47.526Z,69.56
2022-12-28T18:41:20.692Z,68.95
2022-12-28T18:43:48.923Z,68.33
2022-12-28T18:46:16.841Z,67.48
2022-12-28T18:48:45.017Z,67.38
2022-12-28T18:51:14.622Z,66.90
2022-12-28T18:53:43.181Z,66.44
2022-12-28T18:56:13.334Z,67.25
2022-12-28T18:58:43.335Z,67.87
2022-12-28T19:01:32.935Z,68.37
2022-12-28T19:04:02.252Z,68.99
2022-12-28T19:06:30.382Z,69.15
2022-12-28T19:09:00.464Z,69.60
2022-12-28T19:11:28.886Z,69.69
2022-12-28T19:13:58.642Z,69.64
2022-12-28T19:16:30.925Z,69.94
2022-12-28T19:19:00.287Z,69.85
2022-12-28T19:21:30.143Z,70.06
2022-12-28T19:24:03.061Z,70.27
2022-12-28T19:26:32.558Z,70.37
2022-12-28T19:29:03.522Z,70.46
2022-12-28T19:31:32.503Z,70.59
2022-12-28T19:34:00.648Z,70.69
2022-12-28T19:36:28.477Z,70.78
2022-12-28T19:38:56.743Z,70.86
2022-12-28T19:41:25.135Z,71.18
2022-12-28T19:43:53.232Z,71.15
2022-12-28T19:46:30.814Z,71.12
2022-12-28T19:48:59.416Z,71.32
2022-12-28T19:51:31.065Z,71.48
2022-12-28T19:54:00.230Z,71.40
2022-12-28T19:56:28.107Z,71.44
2022-12-28T19:59:03.059Z,71.81
2022-12-28T20:01:35.672Z,72.16
2022-12-28T20:04:10.562Z,71.96
2022-12-28T20:06:42.261Z,71.86
2022-12-28T20:09:10.198Z,71.85
2022-12-28T20:11:38.427Z,71.83
2022-12-28T20:14:06.529Z,72.37
2022-12-28T20:16:36.427Z,72.39
2022-12-28T20:19:06.875Z,72.29
2022-12-28T20:21:36.197Z,72.50
2022-12-28T20:24:04.944Z,72.14
2022-12-28T20:26:33.494Z,72.22
2022-12-28T20:29:02.804Z,72.35
2022-12-28T20:31:31.154Z,72.14
2022-12-28T20:34:01.617Z,72.25
2022-12-28T20:36:31.062Z,72.38
2022-12-28T20:38:58.846Z,72.24
2022-12-28T20:41:45.329Z,72.43
2022-12-28T20:44:15.758Z,72.32
2022-12-28T20:46:44.186Z,72.37
2022-12-28T20:49:14.190Z,72.47
2022-12-28T20:51:42.641Z,72.47
2022-12-28T20:54:11.442Z,72.53
2022-12-28T20:56:41.717Z,72.76
2022-12-28T20:59:10.441Z,72.50
2022-12-28T21:01:39.640Z,72.73
2022-12-28T21:04:08.015Z,71.81
2022-12-28T21:06:37.293Z,72.32
2022-12-28T21:09:05.173Z,71.95
2022-12-28T21:11:33.355Z,72.72
2022-12-28T21:14:01.349Z,72.63
2022-12-28T21:16:29.436Z,72.52
2022-12-28T21:18:57.262Z,72.95
2022-12-28T21:21:25.038Z,72.98
2022-12-28T21:23:54.344Z,72.83
2022-12-28T21:26:22.906Z,72.97
2022-12-28T21:28:50.750Z,72.96
2022-12-28T21:31:18.590Z,72.92
2022-12-28T21:33:46.588Z,72.72
2022-12-28T21:36:16.794Z,72.85
2022-12-28T21:38:45.514Z,72.73
2022-12-28T21:41:16.554Z,72.67
2022-12-28T21:43:44.354Z,72.79
2022-12-28T21:46:15.878Z,72.73
2022-12-28T21:48:43.749Z,72.86
2022-12-28T21:51:27.779Z,72.99
2022-12-28T21:53:55.917Z,73.24
2022-12-28T21:56:25.212Z,73.12
2022-12-28T21:58:53.051Z,73.27
2022-12-28T22:01:38.844Z,73.29
2022-12-28T22:04:24.668Z,73.28
2022-12-28T22:06:52.599Z,73.49
2022-12-28T22:09:37.701Z,73.38
2022-12-28T22:12:25.394Z,73.04
2022-12-28T22:15:13.804Z,73.06
2022-12-28T22:17:41.654Z,73.11
2022-12-28T22:20:11.511Z,73.28
2022-12-28T22:22:40.382Z,73.31
2022-12-28T22:25:09.173Z,73.18
2022-12-28T22:27:38.388Z,73.10
2022-12-28T22:30:07.048Z,73.22
2022-12-28T22:32:34.810Z,73.08
2022-12-28T22:35:02.697Z,73.13
2022-12-28T22:37:30.527Z,73.03
2022-12-28T22:39:58.303Z,73.24
2022-12-28T22:42:26.107Z,73.33
2022-12-28T22:44:55.269Z,72.99
2022-12-28T22:47:23.671Z,73.29
2022-12-28T22:49:51.446Z,73.28
2022-12-28T22:52:19.221Z,73.07
2022-12-28T22:54:47.507Z,73.23
2022-12-28T22:57:15.450Z,73.28
2022-12-28T22:59:43.278Z,73.45
2022-12-28T23:02:12.790Z,73.27
2022-12-28T23:04:41.281Z,73.40
2022-12-28T23:07:09.080Z,73.30
2022-12-28T23:09:36.936Z,73.49
2022-12-28T23:12:05.208Z,73.52
2022-12-28T23:14:50.588Z,73.46
2022-12-28T23:17:19.829Z,73.19
2022-12-28T23:20:05.930Z,73.45
2022-12-28T23:22:53.566Z,73.48
2022-12-28T23:25:47.060Z,73.42
2022-12-28T23:28:17.139Z,73.50
2022-12-28T23:30:47.221Z,73.45
2022-12-28T23:33:16.915Z,73.20
2022-12-28T23:35:45.282Z,73.38
2022-12-28T23:38:13.211Z,73.22
2022-12-28T23:40:42.765Z,73.35
2022-12-28T23:43:10.746Z,73.43
2022-12-28T23:45:38.532Z,73.39
2022-12-28T23:48:06.836Z,73.82
2022-12-28T23:50:36.151Z,73.55
2022-12-28T23:53:03.914Z,73.73
2022-12-28T23:55:31.679Z,73.63
2022-12-28T23:57:59.474Z,73.83
